createdAt,value
2022-08-17T00:00:00.512Z,5.30
2022-08-17T00:02:27.568Z,5.25
2022-08-17T00:04:55.538Z,5.18
2022-08-17T00:07:23.430Z,5.20
2022-08-17T00:09:50.492Z,5.18
2022-08-17T00:12:43.446Z,5.82
2022-08-17T00:15:06.378Z,4.97
2022-08-17T00:17:37.453Z,5.15
2022-08-17T00:20:05.098Z,5.53
2022-08-17T00:22:46.686Z,5.00
2022-08-17T00:25:20.093Z,4.93
2022-08-17T00:27:46.915Z,5.25
2022-08-17T00:30:14.396Z,5.20
2022-08-17T00:33:23.097Z,5.50
2022-08-17T00:35:34.497Z,6.50
2022-08-17T00:38:01.177Z,6.30
2022-08-17T00:40:40.784Z,6.18
2022-08-17T00:43:20.093Z,6.20
2022-08-17T00:45:47.771Z,5.15
2022-08-17T00:48:28.932Z,4.53
2022-08-17T00:51:02.365Z,6.18
2022-08-17T00:53:31.668Z,6.30
2022-08-17T00:56:05.101Z,6.55
2022-08-17T00:58:36.633Z,6.10
2022-08-17T01:01:06.764Z,5.70
2022-08-17T01:03:35.850Z,5.15
2022-08-17T01:06:04.578Z,5.55
2022-08-17T01:08:32.959Z,4.82
2022-08-17T01:11:04.165Z,4.60
2022-08-17T01:13:43.368Z,5.28
2022-08-17T01:16:30.525Z,5.87
2022-08-17T01:19:01.187Z,5.43
2022-08-17T01:21:27.999Z,5.37
2022-08-17T01:23:55.678Z,4.85
2022-08-17T01:26:23.308Z,5.72
2022-08-17T01:28:55.084Z,5.90
2022-08-17T01:31:23.951Z,5.03
2022-08-17T01:33:51.096Z,5.72
2022-08-17T01:36:18.362Z,6.32
2022-08-17T01:38:45.328Z,5.22
2022-08-17T01:41:16.627Z,4.80
2022-08-17T01:43:52.115Z,4.45
2022-08-17T01:46:23.452Z,4.53
2022-08-17T01:48:51.319Z,5.05
2022-08-17T01:51:19.308Z,4.57
2022-08-17T01:53:52.615Z,4.97
2022-08-17T01:56:22.658Z,5.70
2022-08-17T01:58:49.411Z,5.32
2022-08-17T02:01:19.183Z,5.53
2022-08-17T02:03:53.337Z,6.47
2022-08-17T02:06:31.605Z,5.57
2022-08-17T02:09:17.040Z,5.35
2022-08-17T02:11:45.252Z,5.00
2022-08-17T02:14:13.530Z,6.10
2022-08-17T02:16:41.071Z,5.50
2022-08-17T02:19:11.314Z,6.03
2022-08-17T02:21:39.520Z,5.50
2022-08-17T02:24:11.096Z,5.12
2022-08-17T02:26:37.968Z,5.25
2022-08-17T02:29:04.944Z,5.10
2022-08-17T02:31:31.780Z,5.00
2022-08-17T02:34:03.896Z,4.80
2022-08-17T02:36:35.785Z,5.18
2022-08-17T02:39:04.665Z,5.45
2022-08-17T02:41:31.573Z,5.37
2022-08-17T02:43:58.843Z,5.53
2022-08-17T02:46:26.333Z,5.57
2022-08-17T02:48:53.028Z,5.30
2022-08-17T02:51:20.196Z,4.65
2022-08-17T02:53:47.289Z,4.87
2022-08-17T02:56:14.199Z,5.10
2022-08-17T02:58:41.071Z,5.25
2022-08-17T03:01:10.071Z,4.28
2022-08-17T03:03:37.890Z,5.25
2022-08-17T03:06:05.450Z,6.37
2022-08-17T03:08:32.296Z,5.93
2022-08-17T03:10:59.075Z,4.93
2022-08-17T03:13:27.666Z,5.15
2022-08-17T03:15:54.555Z,5.43
2022-08-17T03:18:25.264Z,5.55
2022-08-17T03:21:00.649Z,5.78
2022-08-17T03:23:29.638Z,4.22
2022-08-17T03:28:24.903Z,5.22
2022-08-17T03:30:52.700Z,4.68
2022-08-17T03:33:19.569Z,5.50
2022-08-17T03:35:47.056Z,5.03
2022-08-17T03:38:16.008Z,5.93
2022-08-17T03:40:56.625Z,5.60
2022-08-17T03:43:30.686Z,6.45
2022-08-17T03:46:33.815Z,5.00
2022-08-17T03:49:26.194Z,5.80
2022-08-17T03:52:15.777Z,6.37
2022-08-17T03:57:29.307Z,5.62
2022-08-17T03:59:57.342Z,5.35
2022-08-17T04:02:25.773Z,5.68
2022-08-17T04:04:53.953Z,5.45
2022-08-17T04:07:23.052Z,5.57
2022-08-17T04:09:50.798Z,7.30
2022-08-17T04:12:20.117Z,5.57
2022-08-17T04:14:53.146Z,5.87
2022-08-17T04:17:26.587Z,6.18
2022-08-17T04:19:54.489Z,4.68
2022-08-17T04:22:32.869Z,5.43
2022-08-17T04:25:09.915Z,4.82
2022-08-17T04:27:36.759Z,4.85
2022-08-17T04:30:06.037Z,4.55
2022-08-17T04:33:04.018Z,4.10
2022-08-17T04:35:23.901Z,4.70
2022-08-17T04:37:51.718Z,4.30
2022-08-17T04:40:38.080Z,4.62
2022-08-17T04:43:18.648Z,4.45
2022-08-17T04:45:57.871Z,4.40
2022-08-17T04:48:36.706Z,4.28
2022-08-17T04:53:37.677Z,4.07
2022-08-17T04:56:05.323Z,4.40
2022-08-17T04:58:32.199Z,4.95
2022-08-17T05:00:59.020Z,4.10
2022-08-17T05:03:26.200Z,5.30
2022-08-17T05:05:53.818Z,6.32
2022-08-17T05:08:22.006Z,5.47
2022-08-17T05:10:49.217Z,5.72
2022-08-17T05:13:24.889Z,4.87
2022-08-17T05:15:56.741Z,6.10
2022-08-17T05:18:24.683Z,36.53
2022-08-17T05:20:52.485Z,30.12
2022-08-17T05:23:21.641Z,9.50
2022-08-17T05:25:51.586Z,11.73
2022-08-17T05:28:24.147Z,20.88
2022-08-17T05:30:56.935Z,21.70
2022-08-17T05:35:56.606Z,16.90
2022-08-17T05:38:25.614Z,11.88
2022-08-17T05:40:53.765Z,5.87
2022-08-17T05:43:22.382Z,7.80
2022-08-17T05:45:56.468Z,5.75
2022-08-17T05:48:35.689Z,6.28
2022-08-17T05:51:15.634Z,6.87
2022-08-17T05:53:48.144Z,6.55
2022-08-17T05:56:34.742Z,5.72
2022-08-17T05:59:27.183Z,6.40
2022-08-17T06:02:26.713Z,10.38
2022-08-17T06:05:05.419Z,7.60
2022-08-17T06:07:46.269Z,10.98
2022-08-17T06:10:34.320Z,7.18
2022-08-17T06:13:12.922Z,6.25
2022-08-17T06:16:33.794Z,6.37
2022-08-17T06:19:21.868Z,5.70
2022-08-17T06:21:53.087Z,6.07
2022-08-17T06:24:35.458Z,6.15
2022-08-17T06:27:13.568Z,6.12
2022-08-17T06:29:58.247Z,6.43
2022-08-17T06:32:25.779Z,5.87
2022-08-17T06:34:52.985Z,5.93
2022-08-17T06:37:48.937Z,5.40
2022-08-17T06:40:45.948Z,6.43
2022-08-17T06:43:34.223Z,5.82
2022-08-17T06:46:11.554Z,5.05
2022-08-17T06:49:08.282Z,5.65
2022-08-17T06:51:40.741Z,5.95
2022-08-17T06:54:19.740Z,6.37
2022-08-17T06:56:57.503Z,5.90
2022-08-17T06:59:55.373Z,5.80
2022-08-17T07:03:01.704Z,5.75
2022-08-17T07:05:44.708Z,5.28
2022-08-17T07:08:42.843Z,5.57
2022-08-17T07:11:26.306Z,5.60
2022-08-17T07:14:18.537Z,4.65
2022-08-17T07:16:50.888Z,4.37
2022-08-17T07:19:22.690Z,4.72
2022-08-17T07:22:24.987Z,5.62
2022-08-17T07:25:05.586Z,5.45
2022-08-17T07:27:40.792Z,5.60
2022-08-17T07:30:17.880Z,5.32
2022-08-17T07:32:53.987Z,5.57
2022-08-17T07:35:40.719Z,5.30
2022-08-17T07:38:28.746Z,5.72
2022-08-17T07:41:02.316Z,5.87
2022-08-17T07:43:39.698Z,5.40
2022-08-17T07:46:24.735Z,5.97
2022-08-17T07:48:54.924Z,5.55
2022-08-17T07:51:25.362Z,5.57
2022-08-17T07:54:12.905Z,5.62
2022-08-17T07:56:47.152Z,4.95
2022-08-17T07:59:23.307Z,5.50
2022-08-17T08:01:57.521Z,4.45
2022-08-17T08:05:06.628Z,5.37
2022-08-17T08:07:42.682Z,5.20
2022-08-17T08:10:16.971Z,5.35
2022-08-17T08:12:52.779Z,4.93
2022-08-17T08:15:25.895Z,5.22
2022-08-17T08:18:01.616Z,4.55
2022-08-17T08:21:08.966Z,5.05
2022-08-17T08:24:14.525Z,5.50
2022-08-17T08:26:58.472Z,4.70
2022-08-17T08:29:51.040Z,4.70
2022-08-17T08:32:51.977Z,5.80
2022-08-17T08:35:54.062Z,5.15
2022-08-17T08:38:42.779Z,4.75
2022-08-17T08:44:16.455Z,4.95
2022-08-17T08:46:59.986Z,4.93
2022-08-17T08:50:01.393Z,5.10
2022-08-17T08:52:21.819Z,3.97
2022-08-17T08:54:57.043Z,4.80
2022-08-17T08:57:34.561Z,4.28
2022-08-17T09:00:04.912Z,3.72
2022-08-17T09:02:37.979Z,4.55
2022-08-17T09:05:22.910Z,4.75
2022-08-17T09:08:11.283Z,4.20
2022-08-17T09:11:12.855Z,4.20
2022-08-17T09:14:01.789Z,4.10
2022-08-17T09:16:36.180Z,3.78
2022-08-17T09:19:33.439Z,3.78
2022-08-17T09:22:31.729Z,3.58
2022-08-17T09:28:16.803Z,4.30
2022-08-17T09:30:55.653Z,4.20
2022-08-17T09:33:27.216Z,4.60
2022-08-17T09:36:10.267Z,5.05
2022-08-17T09:38:58.280Z,4.55
2022-08-17T09:41:49.132Z,4.53
2022-08-17T09:44:46.006Z,4.80
2022-08-17T09:47:45.671Z,4.15
2022-08-17T09:51:05.423Z,4.50
2022-08-17T09:53:12.473Z,4.60
2022-08-17T09:56:14.787Z,4.50
2022-08-17T09:59:16.987Z,3.85
2022-08-17T10:01:56.780Z,4.15
2022-08-17T10:04:39.853Z,3.83
2022-08-17T10:07:19.076Z,4.35
2022-08-17T10:09:56.949Z,3.30
2022-08-17T10:12:47.101Z,4.15
2022-08-17T10:15:37.489Z,4.15
2022-08-17T10:18:37.842Z,4.00
2022-08-17T10:21:30.297Z,4.03
2022-08-17T10:24:36.500Z,3.90
2022-08-17T10:27:08.549Z,4.10
2022-08-17T10:29:48.499Z,3.75
2022-08-17T10:33:00.864Z,3.92
2022-08-17T10:36:10.650Z,3.72
2022-08-17T10:39:00.441Z,3.67
2022-08-17T10:41:49.624Z,3.70
2022-08-17T10:44:45.769Z,3.95
2022-08-17T10:47:16.440Z,3.62
2022-08-17T10:49:54.239Z,3.78
2022-08-17T10:52:22.022Z,3.58
2022-08-17T10:54:51.798Z,4.35
2022-08-17T10:57:34.466Z,4.07
2022-08-17T11:00:14.952Z,3.90
2022-08-17T11:02:53.683Z,3.67
2022-08-17T11:05:29.601Z,3.83
2022-08-17T11:08:27.350Z,4.03
2022-08-17T11:11:09.654Z,4.07
2022-08-17T11:13:46.183Z,3.42
2022-08-17T11:16:50.444Z,3.65
2022-08-17T11:19:26.668Z,3.37
2022-08-17T11:22:33.573Z,3.97
2022-08-17T11:25:20.558Z,3.78
2022-08-17T11:27:54.094Z,3.83
2022-08-17T11:30:48.594Z,3.55
2022-08-17T11:33:38.238Z,3.92
2022-08-17T11:36:37.927Z,4.62
2022-08-17T11:39:32.530Z,4.30
2022-08-17T11:42:08.553Z,3.87
2022-08-17T11:44:53.400Z,3.80
2022-08-17T11:48:26.708Z,3.80
2022-08-17T11:51:47.321Z,3.80
2022-08-17T11:54:39.518Z,3.70
2022-08-17T11:57:27.924Z,4.10
2022-08-17T11:59:59.050Z,3.60
2022-08-17T12:02:32.603Z,4.20
2022-08-17T12:05:14.686Z,4.30
2022-08-17T12:07:52.621Z,3.17
2022-08-17T12:10:30.644Z,3.72
2022-08-17T12:13:06.201Z,3.45
2022-08-17T12:15:39.532Z,3.20
2022-08-17T12:18:06.421Z,3.83
2022-08-17T12:20:40.240Z,3.47
2022-08-17T12:23:09.627Z,3.00
2022-08-17T12:25:39.951Z,3.78
2022-08-17T12:28:23.279Z,3.17
2022-08-17T12:30:52.023Z,3.40
2022-08-17T12:33:27.831Z,3.20
2022-08-17T12:36:15.734Z,3.20
2022-08-17T12:39:13.697Z,3.50
2022-08-17T12:41:47.392Z,3.53
2022-08-17T12:44:17.274Z,3.42
2022-08-17T12:47:09.828Z,3.35
2022-08-17T12:49:39.578Z,3.20
2022-08-17T12:52:13.746Z,3.37
2022-08-17T12:54:52.721Z,3.67
2022-08-17T12:57:31.437Z,3.35
2022-08-17T13:00:28.954Z,3.20
2022-08-17T13:02:58.599Z,3.03
2022-08-17T13:05:30.504Z,3.33
2022-08-17T13:07:59.927Z,2.75
2022-08-17T13:10:33.016Z,3.08
2022-08-17T13:13:05.436Z,3.25
2022-08-17T13:15:44.444Z,2.92
2022-08-17T13:18:49.851Z,2.62
2022-08-17T13:21:19.893Z,2.90
2022-08-17T13:24:01.906Z,2.87
2022-08-17T13:26:40.424Z,2.80
2022-08-17T13:31:52.450Z,2.78
2022-08-17T13:34:26.975Z,3.08
2022-08-17T13:37:25.833Z,2.80
2022-08-17T13:39:54.821Z,2.70
2022-08-17T13:42:52.296Z,2.97
2022-08-17T13:45:36.578Z,2.70
2022-08-17T13:48:32.197Z,3.28
2022-08-17T13:50:59.738Z,2.62
2022-08-17T13:53:33.535Z,2.37
2022-08-17T13:56:37.027Z,2.80
2022-08-17T13:59:02.882Z,2.90
2022-08-17T14:01:37.024Z,2.67
2022-08-17T14:04:13.789Z,3.05
2022-08-17T14:06:58.082Z,2.83
2022-08-17T14:09:32.449Z,2.80
2022-08-17T14:12:04.334Z,2.47
2022-08-17T14:14:31.410Z,2.85
2022-08-17T14:16:58.335Z,2.72
2022-08-17T14:19:26.335Z,2.70
2022-08-17T14:21:56.705Z,2.72
2022-08-17T14:24:26.812Z,2.75
2022-08-17T14:26:53.955Z,2.75
2022-08-17T14:29:23.082Z,2.97
2022-08-17T14:31:54.268Z,3.47
2022-08-17T14:34:23.132Z,3.10
2022-08-17T14:36:50.358Z,3.05
2022-08-17T14:39:18.398Z,3.15
2022-08-17T14:41:45.575Z,2.80
2022-08-17T14:44:13.193Z,3.42
2022-08-17T14:46:41.984Z,3.00
2022-08-17T14:49:11.478Z,2.95
2022-08-17T14:54:11.867Z,2.12
2022-08-17T14:57:22.220Z,2.57
2022-08-17T14:59:46.073Z,3.20
2022-08-17T15:02:13.504Z,2.62
2022-08-17T15:04:45.339Z,3.33
2022-08-17T15:07:12.545Z,3.45
2022-08-17T15:09:39.409Z,2.83
2022-08-17T15:12:06.782Z,3.22
2022-08-17T15:14:35.604Z,3.00
2022-08-17T15:17:03.880Z,3.47
2022-08-17T15:19:30.921Z,3.47
2022-08-17T15:21:57.787Z,3.20
2022-08-17T15:24:24.980Z,3.50
2022-08-17T15:26:52.075Z,3.90
2022-08-17T15:29:18.852Z,3.87
2022-08-17T15:31:45.820Z,3.87
2022-08-17T15:34:12.574Z,4.10
2022-08-17T15:36:43.861Z,3.53
2022-08-17T15:39:19.488Z,3.95
2022-08-17T15:41:47.564Z,3.75
2022-08-17T15:44:32.350Z,3.30
2022-08-17T15:47:02.080Z,4.00
2022-08-17T15:49:28.896Z,3.20
2022-08-17T15:51:56.023Z,3.58
2022-08-17T15:54:23.551Z,3.50
2022-08-17T15:56:50.630Z,3.30
2022-08-17T15:59:17.373Z,4.00
2022-08-17T16:03:04.658Z,3.50
2022-08-17T16:04:31.745Z,3.35
2022-08-17T16:06:59.793Z,4.12
2022-08-17T16:09:27.209Z,3.67
2022-08-17T16:11:56.320Z,3.80
2022-08-17T16:14:30.285Z,3.30
2022-08-17T16:17:01.139Z,3.35
2022-08-17T16:19:27.954Z,3.30
2022-08-17T16:21:54.911Z,3.47
2022-08-17T16:24:21.697Z,3.58
2022-08-17T16:26:48.893Z,3.20
2022-08-17T16:29:16.020Z,3.35
2022-08-17T16:31:43.459Z,3.30
2022-08-17T16:34:16.813Z,3.78
2022-08-17T16:36:55.636Z,3.37
2022-08-17T16:39:25.729Z,3.10
2022-08-17T16:41:52.710Z,3.85
2022-08-17T16:44:21.451Z,4.05
2022-08-17T16:46:49.073Z,3.37
2022-08-17T16:49:35.332Z,3.35
2022-08-17T16:52:04.461Z,3.60
2022-08-17T16:54:31.259Z,3.50
2022-08-17T16:56:58.176Z,3.30
2022-08-17T16:59:30.166Z,2.90
2022-08-17T17:02:05.014Z,3.50
2022-08-17T17:04:35.171Z,3.67
2022-08-17T17:07:40.025Z,3.65
2022-08-17T17:10:15.638Z,3.15
2022-08-17T17:13:02.899Z,3.17
2022-08-17T17:16:06.474Z,3.58
2022-08-17T17:18:53.270Z,3.53
2022-08-17T17:21:27.527Z,3.92
2022-08-17T17:24:04.038Z,4.75
2022-08-17T17:27:18.066Z,3.65
2022-08-17T17:29:59.005Z,3.67
2022-08-17T17:32:38.197Z,3.87
2022-08-17T17:35:25.433Z,3.30
2022-08-17T17:37:54.228Z,3.28
2022-08-17T17:40:29.371Z,3.70
2022-08-17T17:43:14.229Z,3.83
2022-08-17T17:45:58.636Z,3.28
2022-08-17T17:48:45.300Z,3.83
2022-08-17T17:52:06.681Z,4.10
2022-08-17T17:54:48.200Z,4.43
2022-08-17T17:57:33.025Z,3.65
2022-08-17T18:00:05.396Z,3.60
2022-08-17T18:02:54.947Z,4.00
2022-08-17T18:05:36.913Z,3.47
2022-08-17T18:08:33.830Z,4.35
2022-08-17T18:11:34.906Z,3.70
2022-08-17T18:14:14.509Z,3.53
2022-08-17T18:19:15.859Z,4.27
2022-08-17T18:21:47.428Z,4.47
2022-08-17T18:24:14.472Z,4.30
2022-08-17T18:26:46.109Z,3.60
2022-08-17T18:29:31.725Z,4.10
2022-08-17T18:32:32.660Z,4.30
2022-08-17T18:35:27.852Z,3.87
2022-08-17T18:38:28.826Z,3.97
2022-08-17T18:41:02.396Z,3.87
2022-08-17T18:43:52.881Z,3.95
2022-08-17T18:46:37.757Z,4.20
2022-08-17T18:49:28.483Z,4.15
2022-08-17T18:52:10.952Z,3.22
2022-08-17T18:54:38.712Z,4.43
2022-08-17T18:57:07.852Z,4.45
2022-08-17T18:59:48.441Z,4.97
2022-08-17T19:02:29.708Z,4.65
2022-08-17T19:05:04.790Z,4.85
2022-08-17T19:07:42.251Z,4.93
2022-08-17T19:10:26.120Z,5.85
2022-08-17T19:13:00.890Z,5.93
2022-08-17T19:15:38.099Z,5.68
2022-08-17T19:18:15.832Z,5.20
2022-08-17T19:21:00.857Z,5.45
2022-08-17T19:23:36.768Z,4.55
2022-08-17T19:26:50.318Z,5.75
2022-08-17T19:29:02.491Z,5.65
2022-08-17T19:31:31.403Z,5.18
2022-08-17T19:34:00.772Z,5.28
2022-08-17T19:39:22.709Z,5.03
2022-08-17T19:42:01.363Z,5.47
2022-08-17T19:45:16.322Z,5.68
2022-08-17T19:47:55.330Z,4.35
2022-08-17T19:50:41.392Z,4.70
2022-08-17T19:54:01.750Z,4.60
2022-08-17T19:56:31.892Z,5.43
2022-08-17T19:59:26.534Z,4.57
2022-08-17T20:02:01.421Z,4.35
2022-08-17T20:04:41.463Z,4.32
2022-08-17T20:07:20.213Z,4.72
2022-08-17T20:09:53.024Z,4.70
2022-08-17T20:12:28.434Z,4.25
2022-08-17T20:15:00.464Z,4.00
2022-08-17T20:17:34.579Z,4.40
2022-08-17T20:20:38.901Z,4.55
2022-08-17T20:23:32.938Z,4.60
2022-08-17T20:26:10.229Z,5.30
2022-08-17T20:28:39.331Z,4.75
2022-08-17T20:31:45.790Z,4.43
2022-08-17T20:34:33.772Z,4.65
2022-08-17T20:37:04.403Z,5.35
2022-08-17T20:39:39.547Z,4.00
2022-08-17T20:42:30.608Z,4.43
2022-08-17T20:45:21.625Z,4.85
2022-08-17T20:48:18.720Z,4.65
2022-08-17T20:50:45.539Z,6.60
2022-08-17T20:53:55.540Z,5.15
2022-08-17T20:56:44.417Z,4.82
2022-08-17T20:59:25.691Z,4.95
2022-08-17T21:02:19.348Z,4.43
2022-08-17T21:04:56.488Z,4.62
2022-08-17T21:07:42.761Z,4.75
2022-08-17T21:10:23.712Z,4.87
2022-08-17T21:13:08.461Z,6.03
2022-08-17T21:16:13.211Z,4.55
2022-08-17T21:19:23.847Z,5.75
2022-08-17T21:22:26.148Z,5.18
2022-08-17T21:25:11.539Z,4.68
2022-08-17T21:28:12.707Z,5.28
2022-08-17T21:30:39.517Z,4.50
2022-08-17T21:33:12.339Z,4.82
2022-08-17T21:35:54.044Z,4.55
2022-08-17T21:38:42.788Z,5.28
2022-08-17T21:41:28.662Z,5.93
2022-08-17T21:44:05.429Z,5.50
2022-08-17T21:46:37.765Z,4.70
2022-08-17T21:49:13.475Z,4.60
2022-08-17T21:51:50.563Z,5.18
2022-08-17T21:54:38.932Z,5.07
2022-08-17T21:57:15.040Z,4.82
2022-08-17T21:59:43.818Z,5.62
2022-08-17T22:02:24.082Z,5.25
2022-08-17T22:05:06.880Z,4.95
2022-08-17T22:07:38.867Z,4.75
2022-08-17T22:10:26.312Z,4.78
2022-08-17T22:13:06.214Z,5.57
2022-08-17T22:15:49.404Z,5.28
2022-08-17T22:18:27.787Z,5.05
2022-08-17T22:20:59.429Z,4.95
2022-08-17T22:23:57.253Z,4.70
2022-08-17T22:26:28.288Z,5.12
2022-08-17T22:28:59.091Z,5.00
2022-08-17T22:31:32.878Z,4.95
2022-08-17T22:34:02.396Z,4.72
2022-08-17T22:39:09.700Z,5.18
2022-08-17T22:41:48.528Z,5.18
2022-08-17T22:44:24.438Z,4.70
2022-08-17T22:47:03.525Z,4.90
2022-08-17T22:49:53.557Z,5.35
2022-08-17T22:52:36.182Z,5.82
2022-08-17T22:55:32.645Z,5.65
2022-08-17T22:58:19.146Z,4.85
2022-08-17T23:00:48.942Z,5.57
2022-08-17T23:03:25.045Z,4.93
2022-08-17T23:06:10.569Z,5.93
2022-08-17T23:08:58.158Z,5.50
2022-08-17T23:11:36.646Z,4.35
2022-08-17T23:16:42.887Z,4.90
2022-08-17T23:19:15.469Z,4.53
2022-08-17T23:21:46.551Z,4.87
2022-08-17T23:24:26.175Z,4.82
2022-08-17T23:26:54.678Z,4.75
2022-08-17T23:29:21.645Z,4.97
2022-08-17T23:31:50.646Z,5.53
2022-08-17T23:34:18.694Z,4.30
2022-08-17T23:36:52.271Z,5.20
2022-08-17T23:39:27.385Z,5.10
2022-08-17T23:41:57.251Z,4.87
2022-08-17T23:44:24.017Z,5.68
2022-08-17T23:46:52.101Z,4.82
2022-08-17T23:49:19.276Z,5.22
2022-08-17T23:51:48.533Z,4.47
2022-08-17T23:54:21.115Z,5.10
2022-08-17T23:56:47.946Z,5.25
2022-08-17T23:59:16.499Z,5.18
